S C — FGF7634 — position and weather

sailwx.info

Track history (hours):
 
Tides and Currents Weather Stations Pressure Air Temp Water Temp Dewpoint Dewpoint Depression Visibility Wind Speed Wind Dir Waves Ship Positions

S C

Last reported at 2014-Jul-23 11:33 UTC. Time now 2014-Jul-23 13:34 UTC.
Position N 49°29' E 000°07'.

; draft 1 m.

Type: Pilot. MMSI: 227001820.

Date/timePositionNaut miles runAvg speedWind from/ knotsBaromVisibWave heightAir tempDewpointWater temp
2014-Jul-23 11:33N 49°29' E 000°07'0 0.0
2014-Jul-23 10:33N 49°29' E 000°07'8 7.6
2014-Jul-23 09:33N 49°31' W 000°04'8 7.6
2014-Jul-23 08:33N 49°29' E 000°07'0 0.2
2014-Jul-23 07:33N 49°29' E 000°06'0 0.2
2014-Jul-23 06:34N 49°29' E 000°07'0 0.1
2014-Jul-23 05:33N 49°29' E 000°07'7 6.6
2014-Jul-23 04:33N 49°31' W 000°03'7 6.7
2014-Jul-23 03:33N 49°29' E 000°07'0 0.0
2014-Jul-23 02:33N 49°29' E 000°07'2 1.6
2014-Jul-23 01:33N 49°29' E 000°04'5 4.7
2014-Jul-23 00:34N 49°31' W 000°03'6 6.2
2014-Jul-22 23:33N 49°29' E 000°07'1 0.6
2014-Jul-22 22:33N 49°29' E 000°06'1 0.6
2014-Jul-22 21:33N 49°29' E 000°07'3 2.7
2014-Jul-22 20:34N 49°30' E 000°03'3 2.7
2014-Jul-22 19:33N 49°29' E 000°07'0 0.0
2014-Jul-22 18:33N 49°29' E 000°07'3 3.1
2014-Jul-22 17:33N 49°30' E 000°02'3 3.1
2014-Jul-22 16:33N 49°29' E 000°07'0 0.0
2014-Jul-22 15:33N 49°29' E 000°07'6 6.1
2014-Jul-22 14:34N 49°30' W 000°02'6 6.1
2014-Jul-22 13:33N 49°29' E 000°07'0 0.0
2014-Jul-22 12:34N 49°29' E 000°07'7 6.6
2014-Jul-22 11:33N 49°31' W 000°03'7 6.6
2014-Jul-22 10:33N 49°29' E 000°07'0 0.0
2014-Jul-22 09:33N 49°29' E 000°07'0 0.0
2014-Jul-22 08:33N 49°29' E 000°07'0 0.0
2014-Jul-22 07:33N 49°29' E 000°07'7 7.1
2014-Jul-22 06:34N 49°31' W 000°04'7 7.1
2014-Jul-22 05:34N 49°29' E 000°07'0 0.0
2014-Jul-22 04:33N 49°29' E 000°07'0 0.0
2014-Jul-22 03:33N 49°29' E 000°07'0 0.0
2014-Jul-22 02:34N 49°29' E 000°07'0 0.0
2014-Jul-22 01:33N 49°29' E 000°07'3 3.4
2014-Jul-22 00:33N 49°30' E 000°02'3 3.4
2014-Jul-21 23:34N 49°29' E 000°07'0 0.0
2014-Jul-21 22:33N 49°29' E 000°07'0 0.0
2014-Jul-21 21:34N 49°29' E 000°07'0 0.0
2014-Jul-21 20:34N 49°29' E 000°07'517.7
2014-Jul-21 20:18N 49°30' W 000°00'2 3.2
2014-Jul-21 19:33N 49°30' E 000°04'1 1.2
2014-Jul-21 18:33N 49°30' E 000°02'3 3.4
2014-Jul-21 17:33N 49°29' E 000°07'0 0.0
2014-Jul-21 16:33N 49°29' E 000°07'0 0.0
2014-Jul-21 15:33N 49°29' E 000°07'7 7.0
2014-Jul-21 14:33N 49°31' W 000°04'7 6.9
2014-Jul-21 13:33N 49°29' E 000°07'6 5.8
2014-Jul-21 12:34N 49°31' W 000°02'6 5.7
2014-Jul-21 11:33N 49°29' E 000°07'0 0.0
2014-Jul-21 10:33N 49°29' E 000°07'1 0.9
2014-Jul-21 09:33N 49°29' E 000°05'1 0.9
2014-Jul-21 08:33N 49°29' E 000°07'0 0.0
2014-Jul-21 07:33N 49°29' E 000°07'0 0.0
2014-Jul-21 06:33N 49°29' E 000°07'0 0.0
2014-Jul-21 05:33N 49°29' E 000°07'1 1.2
2014-Jul-21 04:33N 49°29' E 000°05'6 5.8
2014-Jul-21 03:33N 49°31' W 000°04'6 5.8
2014-Jul-21 02:33N 49°29' E 000°05'1 1.2
2014-Jul-21 01:33N 49°29' E 000°07'0 0.0
2014-Jul-21 00:33N 49°29' E 000°07'0 0.0
2014-Jul-20 23:33N 49°29' E 000°07'0 0.0
2014-Jul-20 22:33N 49°29' E 000°07'0 0.0
2014-Jul-20 21:34N 49°29' E 000°07'0 0.0
2014-Jul-20 20:33N 49°29' E 000°07'0 0.0
2014-Jul-20 19:33N 49°29' E 000°07'3 2.9
2014-Jul-20 18:33N 49°30' E 000°02'3 2.6
2014-Jul-20 17:33N 49°29' E 000°06'0 0.4
2014-Jul-20 16:34N 49°29' E 000°07'0 0.0
2014-Jul-20 15:34N 49°29' E 000°07'0 0.0
2014-Jul-20 14:34N 49°29' E 000°07'2 2.2
2014-Jul-20 13:33N 49°30' E 000°03'2 2.2
2014-Jul-20 12:34N 49°29' E 000°07'0 0.4
2014-Jul-20 11:33N 49°29' E 000°06'2 2.3
2014-Jul-20 10:33N 49°30' E 000°03'2 2.2
2014-Jul-20 09:33N 49°29' E 000°06'0 0.5
2014-Jul-20 08:34N 49°29' E 000°07'0 0.0
2014-Jul-20 07:33N 49°29' E 000°07'0 0.0
2014-Jul-20 06:33N 49°29' E 000°07'0 0.0
2014-Jul-20 05:34N 49°29' E 000°07'7 7.3
2014-Jul-20 04:33N 49°31' W 000°04'1 1.5
2014-Jul-20 03:33N 49°31' W 000°06'9 8.8
2014-Jul-20 02:33N 49°29' E 000°07'1 0.6
2014-Jul-20 01:33N 49°29' E 000°06'1 0.6
2014-Jul-20 00:33N 49°29' E 000°07'0 0.0
2014-Jul-19 23:33N 49°29' E 000°07'0 0.0
2014-Jul-19 22:33N 49°29' E 000°07'1 1.0
2014-Jul-19 21:34N 49°29' E 000°05'1 1.4
2014-Jul-19 20:33N 49°30' E 000°03'2 2.4
2014-Jul-19 19:33N 49°29' E 000°07'0 0.0
2014-Jul-19 18:33N 49°29' E 000°07'7 6.7
2014-Jul-19 17:33N 49°31' W 000°03'7 6.7
2014-Jul-19 16:33N 49°29' E 000°07'9 8.8
2014-Jul-19 15:34N 49°32' W 000°06'9 8.8
2014-Jul-19 14:33N 49°29' E 000°07'0 0.0
2014-Jul-19 13:33N 49°29' E 000°07'0 0.0
2014-Jul-19 12:33N 49°29' E 000°07'3 3.3
2014-Jul-19 11:34N 49°30' E 000°02'2 2.1
2014-Jul-19 10:33N 49°29' E 000°05'1 1.2
2014-Jul-19 09:33N 49°29' E 000°07'0 0.0
2014-Jul-19 08:34N 49°29' E 000°07'0 0.0
2014-Jul-19 07:33N 49°29' E 000°07'0 0.1
2014-Jul-19 06:33N 49°29' E 000°07'3 2.8
2014-Jul-19 05:34N 49°30' E 000°03'3 2.9
2014-Jul-19 04:33N 49°29' E 000°07'0 0.0
2014-Jul-19 03:33N 49°29' E 000°07'0 0.1
2014-Jul-19 02:33N 49°29' E 000°07'0 0.1
2014-Jul-19 01:33N 49°29' E 000°07'0 0.0
2014-Jul-19 00:34N 49°29' E 000°07'2 1.6
2014-Jul-18 23:33N 49°29' E 000°04'2 1.6
2014-Jul-18 22:33N 49°29' E 000°07'0 0.0
2014-Jul-18 21:33N 49°29' E 000°07'0 0.3
2014-Jul-18 20:33N 49°29' E 000°06'0 0.3
2014-Jul-18 19:33N 49°29' E 000°07'0 0.5
2014-Jul-18 18:34N 49°29' E 000°06'0 0.5
2014-Jul-18 17:34N 49°29' E 000°07'0 0.0
2014-Jul-18 16:33N 49°29' E 000°07'5 4.7
2014-Jul-18 15:33N 49°30' W 000°00'1 0.9
2014-Jul-18 14:33N 49°30' W 000°01'6 5.5
2014-Jul-18 13:33N 49°29' E 000°07'0 0.0
2014-Jul-18 12:33N 49°29' E 000°07'0 0.0
2014-Jul-18 11:33N 49°29' E 000°07'4 4.1
2014-Jul-18 10:33N 49°31' E 000°01'4 4.1
2014-Jul-18 09:33N 49°29' E 000°07'2 1.8
2014-Jul-18 08:33N 49°29' E 000°04'0 0.2
2014-Jul-18 07:33N 49°29' E 000°04'2 1.6
2014-Jul-18 06:33N 49°29' E 000°07'0 0.1
2014-Jul-18 05:33N 49°29' E 000°07'6 5.6
2014-Jul-18 04:33N 49°31' W 000°02'6 5.6
2014-Jul-18 03:33N 49°29' E 000°07'0 0.0
2014-Jul-18 02:33N 49°29' E 000°07'0 0.0
2014-Jul-18 01:33N 49°29' E 000°07'0 0.0
2014-Jul-18 00:33N 49°29' E 000°07'0 0.0
2014-Jul-17 23:33N 49°29' E 000°07'0 0.0
2014-Jul-17 22:33N 49°29' E 000°07'0 0.0
2014-Jul-17 21:33N 49°29' E 000°07'1 0.7
2014-Jul-17 20:34N 49°29' E 000°06'1 0.7
2014-Jul-17 19:34N 49°29' E 000°07'1 0.8
2014-Jul-17 18:34N 49°29' E 000°05'1 0.8
2014-Jul-17 17:34N 49°29' E 000°07'3 3.0
2014-Jul-17 16:34N 49°30' E 000°02'1 1.4
2014-Jul-17 15:33N 49°31' E 000°01'4 4.1
2014-Jul-17 14:33N 49°29' E 000°07'7 6.7
2014-Jul-17 13:34N 49°31' W 000°03'7 6.7
2014-Jul-17 12:34N 49°29' E 000°07'0 0.4
2014-Jul-17 11:33N 49°29' E 000°06'3 2.7
2014-Jul-17 10:34N 49°30' E 000°02'3 3.1
2014-Jul-17 09:34N 49°29' E 000°07'0 0.0
2014-Jul-17 08:34N 49°29' E 000°07'0 0.0
2014-Jul-17 07:33N 49°29' E 000°07'0 0.0
2014-Jul-17 06:33N 49°29' E 000°07'0 0.1
2014-Jul-17 05:33N 49°29' E 000°07'0 0.1
2014-Jul-17 04:33N 49°29' E 000°07'2 1.8
2014-Jul-17 03:33N 49°29' E 000°04'2 1.8
2014-Jul-17 02:33N 49°29' E 000°07'6 6.2
2014-Jul-17 01:33N 49°31' W 000°03'6 6.2
2014-Jul-17 00:33N 49°29' E 000°07'0 0.2
2014-Jul-16 23:34N 49°29' E 000°06'0 0.2
2014-Jul-16 22:33N 49°29' E 000°07'0 0.0
2014-Jul-16 21:33N 49°29' E 000°07'0 0.4
2014-Jul-16 20:33N 49°29' E 000°06'0 0.4
2014-Jul-16 19:33N 49°29' E 000°07'0 0.0
2014-Jul-16 18:33N 49°29' E 000°07'1 1.2
2014-Jul-16 17:33N 49°29' E 000°05'1 1.2
2014-Jul-16 16:33N 49°29' E 000°07'5 5.1
2014-Jul-16 15:34N 49°30' W 000°01'5 5.1
2014-Jul-16 14:33N 49°29' E 000°07'0 0.0
2014-Jul-16 13:33N 49°29' E 000°07'0 0.1
2014-Jul-16 12:33N 49°29' E 000°07'0 0.1
2014-Jul-16 11:33N 49°29' E 000°07'0 0.0
2014-Jul-16 10:33N 49°29' E 000°07'3 3.3
2014-Jul-16 09:33N 49°29' E 000°02'3 3.2
2014-Jul-16 08:33N 49°29' E 000°07'0 0.0
2014-Jul-16 07:33N 49°29' E 000°07'3 3.1
2014-Jul-16 06:33N 49°30' E 000°02'3 3.1
2014-Jul-16 05:33N 49°29' E 000°07'0 0.1
2014-Jul-16 04:33N 49°29' E 000°07'5 5.2
2014-Jul-16 03:33N 49°30' W 000°01'3 3.0
2014-Jul-16 02:34N 49°31' W 000°05'8 8.2
2014-Jul-16 01:34N 49°29' E 000°07'0 0.0
2014-Jul-16 00:34N 49°29' E 000°07'1 0.7
2014-Jul-15 23:33N 49°29' E 000°06'1 0.7
2014-Jul-15 22:33N 49°29' E 000°07'2 2.3
2014-Jul-15 21:34N 49°29' E 000°03'4 3.8
2014-Jul-15 20:34N 49°30' W 000°03'6 6.1
2014-Jul-15 19:33N 49°29' E 000°07'0 0.0
2014-Jul-15 18:33N 49°29' E 000°07'2 2.4
2014-Jul-15 17:34N 49°30' E 000°03'2 2.4
2014-Jul-15 16:33N 49°29' E 000°07'3 2.9
2014-Jul-15 15:33N 49°30' E 000°02'3 2.7
2014-Jul-15 14:33N 49°29' E 000°06'0 0.2
2014-Jul-15 13:34N 49°29' E 000°07'0 0.0
2014-Jul-15 12:34N 49°29' E 000°07'4 3.9
2014-Jul-15 11:33N 49°30' E 000°01'4 3.9
2014-Jul-15 10:33N 49°29' E 000°07'0 0.0
2014-Jul-15 09:34N 49°29' E 000°07'0 0.0
2014-Jul-15 08:34N 49°29' E 000°07'0 0.0
2014-Jul-15 07:34N 49°29' E 000°07'1 0.7
2014-Jul-15 06:34N 49°29' E 000°06'1 0.7
2014-Jul-15 05:34N 49°29' E 000°07'0 0.0
2014-Jul-15 04:34N 49°29' E 000°07'0 0.0
2014-Jul-15 03:33N 49°29' E 000°07'0 0.0
2014-Jul-15 02:33N 49°29' E 000°07'0 0.1
2014-Jul-15 01:33N 49°29' E 000°07'0 0.0
2014-Jul-15 00:33N 49°29' E 000°07'1 1.4
2014-Jul-14 23:33N 49°29' E 000°05'1 1.4
2014-Jul-14 22:33N 49°29' E 000°07'5 5.0
2014-Jul-14 21:33N 49°30' W 000°01'5 5.0
2014-Jul-14 20:33N 49°29' E 000°07'0 0.0
2014-Jul-14 19:33N 49°29' E 000°07'1 0.6
2014-Jul-14 18:33N 49°29' E 000°06'3 3.5
2014-Jul-14 17:33N 49°30' E 000°01'4 4.0
2014-Jul-14 16:34N 49°29' E 000°07'0 0.0
2014-Jul-14 15:34N 49°29' E 000°07'0 0.4
2014-Jul-14 14:34N 49°29' E 000°06'0 0.3
2014-Jul-14 13:33N 49°29' E 000°07'0 0.1
2014-Jul-14 12:33N 49°29' E 000°07'0 0.0
2014-Jul-14 11:33N 49°29' E 000°07'0 0.0
2014-Jul-14 10:33N 49°29' E 000°07'0 0.0
2014-Jul-14 09:33N 49°29' E 000°07'7 7.3
2014-Jul-14 08:33N 49°31' W 000°04'7 7.2
2014-Jul-14 07:33N 49°29' E 000°07'2 1.9
2014-Jul-14 06:33N 49°29' E 000°04'2 1.9
2014-Jul-14 05:33N 49°29' E 000°07'3 3.2
2014-Jul-14 04:33N 49°30' E 000°02'3 3.3
2014-Jul-14 03:33N 49°29' E 000°07'5 5.1
2014-Jul-14 02:34N 49°30' W 000°01'3 3.2
2014-Jul-14 01:33N 49°31' W 000°05'8 8.2
2014-Jul-14 00:33N 49°29' E 000°07'0 0.0
2014-Jul-13 23:33N 49°29' E 000°07'8 7.7
2014-Jul-13 22:34N 49°31' W 000°05'8 7.7
2014-Jul-13 21:34N 49°29' E 000°07'0 0.2
2014-Jul-13 20:33N 49°29' E 000°07'1 0.6
2014-Jul-13 19:34N 49°29' E 000°06'1 0.8
2014-Jul-13 18:34N 49°29' E 000°07'5 4.7
2014-Jul-13 17:34N 49°30' W 000°00'5 4.7
2014-Jul-13 16:33N 49°29' E 000°07'0 0.0
2014-Jul-13 15:33N 49°29' E 000°07'0 0.0
2014-Jul-13 14:33N 49°29' E 000°07'3 3.1
2014-Jul-13 13:33N 49°30' E 000°02'3 3.1
2014-Jul-13 12:33N 49°29' E 000°07'4 3.7
2014-Jul-13 11:34N 49°30' E 000°01'  
Track history (hours):
 
Tides and Currents Weather Stations Pressure Air Temp Water Temp Dewpoint Dewpoint Depression Visibility Wind Speed Wind Dir Waves Ship Positions

S C

Last reported at 2014-Jul-23 11:33 UTC. Time now 2014-Jul-23 13:34 UTC.
Position N 49°29' E 000°07'.

; draft 1 m.

Type: Pilot. MMSI: 227001820.

Date/timePositionNaut miles runAvg speedWind from/ knotsBaromVisibWave heightAir tempDewpointWater temp
2014-Jul-23 11:33N 49°29' E 000°07'0 0.0
2014-Jul-23 10:33N 49°29' E 000°07'8 7.6
2014-Jul-23 09:33N 49°31' W 000°04'8 7.6
2014-Jul-23 08:33N 49°29' E 000°07'0 0.2
2014-Jul-23 07:33N 49°29' E 000°06'0 0.2
2014-Jul-23 06:34N 49°29' E 000°07'0 0.1
2014-Jul-23 05:33N 49°29' E 000°07'7 6.6
2014-Jul-23 04:33N 49°31' W 000°03'7 6.7
2014-Jul-23 03:33N 49°29' E 000°07'0 0.0
2014-Jul-23 02:33N 49°29' E 000°07'2 1.6
2014-Jul-23 01:33N 49°29' E 000°04'5 4.7
2014-Jul-23 00:34N 49°31' W 000°03'6 6.2
2014-Jul-22 23:33N 49°29' E 000°07'1 0.6
2014-Jul-22 22:33N 49°29' E 000°06'1 0.6
2014-Jul-22 21:33N 49°29' E 000°07'3 2.7
2014-Jul-22 20:34N 49°30' E 000°03'3 2.7
2014-Jul-22 19:33N 49°29' E 000°07'0 0.0
2014-Jul-22 18:33N 49°29' E 000°07'3 3.1
2014-Jul-22 17:33N 49°30' E 000°02'3 3.1
2014-Jul-22 16:33N 49°29' E 000°07'0 0.0
2014-Jul-22 15:33N 49°29' E 000°07'6 6.1
2014-Jul-22 14:34N 49°30' W 000°02'6 6.1
2014-Jul-22 13:33N 49°29' E 000°07'0 0.0
2014-Jul-22 12:34N 49°29' E 000°07'7 6.6
2014-Jul-22 11:33N 49°31' W 000°03'7 6.6
2014-Jul-22 10:33N 49°29' E 000°07'0 0.0
2014-Jul-22 09:33N 49°29' E 000°07'0 0.0
2014-Jul-22 08:33N 49°29' E 000°07'0 0.0
2014-Jul-22 07:33N 49°29' E 000°07'7 7.1
2014-Jul-22 06:34N 49°31' W 000°04'7 7.1
2014-Jul-22 05:34N 49°29' E 000°07'0 0.0
2014-Jul-22 04:33N 49°29' E 000°07'0 0.0
2014-Jul-22 03:33N 49°29' E 000°07'0 0.0
2014-Jul-22 02:34N 49°29' E 000°07'0 0.0
2014-Jul-22 01:33N 49°29' E 000°07'3 3.4
2014-Jul-22 00:33N 49°30' E 000°02'3 3.4
2014-Jul-21 23:34N 49°29' E 000°07'0 0.0
2014-Jul-21 22:33N 49°29' E 000°07'0 0.0
2014-Jul-21 21:34N 49°29' E 000°07'0 0.0
2014-Jul-21 20:34N 49°29' E 000°07'517.7
2014-Jul-21 20:18N 49°30' W 000°00'2 3.2
2014-Jul-21 19:33N 49°30' E 000°04'1 1.2
2014-Jul-21 18:33N 49°30' E 000°02'3 3.4
2014-Jul-21 17:33N 49°29' E 000°07'0 0.0
2014-Jul-21 16:33N 49°29' E 000°07'0 0.0
2014-Jul-21 15:33N 49°29' E 000°07'7 7.0
2014-Jul-21 14:33N 49°31' W 000°04'7 6.9
2014-Jul-21 13:33N 49°29' E 000°07'6 5.8
2014-Jul-21 12:34N 49°31' W 000°02'6 5.7
2014-Jul-21 11:33N 49°29' E 000°07'0 0.0
2014-Jul-21 10:33N 49°29' E 000°07'1 0.9
2014-Jul-21 09:33N 49°29' E 000°05'1 0.9
2014-Jul-21 08:33N 49°29' E 000°07'0 0.0
2014-Jul-21 07:33N 49°29' E 000°07'0 0.0
2014-Jul-21 06:33N 49°29' E 000°07'0 0.0
2014-Jul-21 05:33N 49°29' E 000°07'1 1.2
2014-Jul-21 04:33N 49°29' E 000°05'6 5.8
2014-Jul-21 03:33N 49°31' W 000°04'6 5.8
2014-Jul-21 02:33N 49°29' E 000°05'1 1.2
2014-Jul-21 01:33N 49°29' E 000°07'0 0.0
2014-Jul-21 00:33N 49°29' E 000°07'0 0.0
2014-Jul-20 23:33N 49°29' E 000°07'0 0.0
2014-Jul-20 22:33N 49°29' E 000°07'0 0.0
2014-Jul-20 21:34N 49°29' E 000°07'0 0.0
2014-Jul-20 20:33N 49°29' E 000°07'0 0.0
2014-Jul-20 19:33N 49°29' E 000°07'3 2.9
2014-Jul-20 18:33N 49°30' E 000°02'3 2.6
2014-Jul-20 17:33N 49°29' E 000°06'0 0.4
2014-Jul-20 16:34N 49°29' E 000°07'0 0.0
2014-Jul-20 15:34N 49°29' E 000°07'0 0.0
2014-Jul-20 14:34N 49°29' E 000°07'2 2.2
2014-Jul-20 13:33N 49°30' E 000°03'2 2.2
2014-Jul-20 12:34N 49°29' E 000°07'0 0.4
2014-Jul-20 11:33N 49°29' E 000°06'2 2.3
2014-Jul-20 10:33N 49°30' E 000°03'2 2.2
2014-Jul-20 09:33N 49°29' E 000°06'0 0.5
2014-Jul-20 08:34N 49°29' E 000°07'0 0.0
2014-Jul-20 07:33N 49°29' E 000°07'0 0.0
2014-Jul-20 06:33N 49°29' E 000°07'0 0.0
2014-Jul-20 05:34N 49°29' E 000°07'7 7.3
2014-Jul-20 04:33N 49°31' W 000°04'1 1.5
2014-Jul-20 03:33N 49°31' W 000°06'9 8.8
2014-Jul-20 02:33N 49°29' E 000°07'1 0.6
2014-Jul-20 01:33N 49°29' E 000°06'1 0.6
2014-Jul-20 00:33N 49°29' E 000°07'0 0.0
2014-Jul-19 23:33N 49°29' E 000°07'0 0.0
2014-Jul-19 22:33N 49°29' E 000°07'1 1.0
2014-Jul-19 21:34N 49°29' E 000°05'1 1.4
2014-Jul-19 20:33N 49°30' E 000°03'2 2.4
2014-Jul-19 19:33N 49°29' E 000°07'0 0.0
2014-Jul-19 18:33N 49°29' E 000°07'7 6.7
2014-Jul-19 17:33N 49°31' W 000°03'7 6.7
2014-Jul-19 16:33N 49°29' E 000°07'9 8.8
2014-Jul-19 15:34N 49°32' W 000°06'9 8.8
2014-Jul-19 14:33N 49°29' E 000°07'0 0.0
2014-Jul-19 13:33N 49°29' E 000°07'0 0.0
2014-Jul-19 12:33N 49°29' E 000°07'3 3.3
2014-Jul-19 11:34N 49°30' E 000°02'2 2.1
2014-Jul-19 10:33N 49°29' E 000°05'1 1.2
2014-Jul-19 09:33N 49°29' E 000°07'0 0.0
2014-Jul-19 08:34N 49°29' E 000°07'0 0.0
2014-Jul-19 07:33N 49°29' E 000°07'0 0.1
2014-Jul-19 06:33N 49°29' E 000°07'3 2.8
2014-Jul-19 05:34N 49°30' E 000°03'3 2.9
2014-Jul-19 04:33N 49°29' E 000°07'0 0.0
2014-Jul-19 03:33N 49°29' E 000°07'0 0.1
2014-Jul-19 02:33N 49°29' E 000°07'0 0.1
2014-Jul-19 01:33N 49°29' E 000°07'0 0.0
2014-Jul-19 00:34N 49°29' E 000°07'2 1.6
2014-Jul-18 23:33N 49°29' E 000°04'2 1.6
2014-Jul-18 22:33N 49°29' E 000°07'0 0.0
2014-Jul-18 21:33N 49°29' E 000°07'0 0.3
2014-Jul-18 20:33N 49°29' E 000°06'0 0.3
2014-Jul-18 19:33N 49°29' E 000°07'0 0.5
2014-Jul-18 18:34N 49°29' E 000°06'0 0.5
2014-Jul-18 17:34N 49°29' E 000°07'0 0.0
2014-Jul-18 16:33N 49°29' E 000°07'5 4.7
2014-Jul-18 15:33N 49°30' W 000°00'1 0.9
2014-Jul-18 14:33N 49°30' W 000°01'6 5.5
2014-Jul-18 13:33N 49°29' E 000°07'0 0.0
2014-Jul-18 12:33N 49°29' E 000°07'0 0.0
2014-Jul-18 11:33N 49°29' E 000°07'4 4.1
2014-Jul-18 10:33N 49°31' E 000°01'4 4.1
2014-Jul-18 09:33N 49°29' E 000°07'2 1.8
2014-Jul-18 08:33N 49°29' E 000°04'0 0.2
2014-Jul-18 07:33N 49°29' E 000°04'2 1.6
2014-Jul-18 06:33N 49°29' E 000°07'0 0.1
2014-Jul-18 05:33N 49°29' E 000°07'6 5.6
2014-Jul-18 04:33N 49°31' W 000°02'6 5.6
2014-Jul-18 03:33N 49°29' E 000°07'0 0.0
2014-Jul-18 02:33N 49°29' E 000°07'0 0.0
2014-Jul-18 01:33N 49°29' E 000°07'0 0.0
2014-Jul-18 00:33N 49°29' E 000°07'0 0.0
2014-Jul-17 23:33N 49°29' E 000°07'0 0.0
2014-Jul-17 22:33N 49°29' E 000°07'0 0.0
2014-Jul-17 21:33N 49°29' E 000°07'1 0.7
2014-Jul-17 20:34N 49°29' E 000°06'1 0.7
2014-Jul-17 19:34N 49°29' E 000°07'1 0.8
2014-Jul-17 18:34N 49°29' E 000°05'1 0.8
2014-Jul-17 17:34N 49°29' E 000°07'3 3.0
2014-Jul-17 16:34N 49°30' E 000°02'1 1.4
2014-Jul-17 15:33N 49°31' E 000°01'4 4.1
2014-Jul-17 14:33N 49°29' E 000°07'7 6.7
2014-Jul-17 13:34N 49°31' W 000°03'7 6.7
2014-Jul-17 12:34N 49°29' E 000°07'0 0.4
2014-Jul-17 11:33N 49°29' E 000°06'3 2.7
2014-Jul-17 10:34N 49°30' E 000°02'3 3.1
2014-Jul-17 09:34N 49°29' E 000°07'0 0.0
2014-Jul-17 08:34N 49°29' E 000°07'0 0.0
2014-Jul-17 07:33N 49°29' E 000°07'0 0.0
2014-Jul-17 06:33N 49°29' E 000°07'0 0.1
2014-Jul-17 05:33N 49°29' E 000°07'0 0.1
2014-Jul-17 04:33N 49°29' E 000°07'2 1.8
2014-Jul-17 03:33N 49°29' E 000°04'2 1.8
2014-Jul-17 02:33N 49°29' E 000°07'6 6.2
2014-Jul-17 01:33N 49°31' W 000°03'6 6.2
2014-Jul-17 00:33N 49°29' E 000°07'0 0.2
2014-Jul-16 23:34N 49°29' E 000°06'0 0.2
2014-Jul-16 22:33N 49°29' E 000°07'0 0.0
2014-Jul-16 21:33N 49°29' E 000°07'0 0.4
2014-Jul-16 20:33N 49°29' E 000°06'0 0.4
2014-Jul-16 19:33N 49°29' E 000°07'0 0.0
2014-Jul-16 18:33N 49°29' E 000°07'1 1.2
2014-Jul-16 17:33N 49°29' E 000°05'1 1.2
2014-Jul-16 16:33N 49°29' E 000°07'5 5.1
2014-Jul-16 15:34N 49°30' W 000°01'5 5.1
2014-Jul-16 14:33N 49°29' E 000°07'0 0.0
2014-Jul-16 13:33N 49°29' E 000°07'0 0.1
2014-Jul-16 12:33N 49°29' E 000°07'0 0.1
2014-Jul-16 11:33N 49°29' E 000°07'0 0.0
2014-Jul-16 10:33N 49°29' E 000°07'3 3.3
2014-Jul-16 09:33N 49°29' E 000°02'3 3.2
2014-Jul-16 08:33N 49°29' E 000°07'0 0.0
2014-Jul-16 07:33N 49°29' E 000°07'3 3.1
2014-Jul-16 06:33N 49°30' E 000°02'3 3.1
2014-Jul-16 05:33N 49°29' E 000°07'0 0.1
2014-Jul-16 04:33N 49°29' E 000°07'5 5.2
2014-Jul-16 03:33N 49°30' W 000°01'3 3.0
2014-Jul-16 02:34N 49°31' W 000°05'8 8.2
2014-Jul-16 01:34N 49°29' E 000°07'0 0.0
2014-Jul-16 00:34N 49°29' E 000°07'1 0.7
2014-Jul-15 23:33N 49°29' E 000°06'1 0.7
2014-Jul-15 22:33N 49°29' E 000°07'2 2.3
2014-Jul-15 21:34N 49°29' E 000°03'4 3.8
2014-Jul-15 20:34N 49°30' W 000°03'6 6.1
2014-Jul-15 19:33N 49°29' E 000°07'0 0.0
2014-Jul-15 18:33N 49°29' E 000°07'2 2.4
2014-Jul-15 17:34N 49°30' E 000°03'2 2.4
2014-Jul-15 16:33N 49°29' E 000°07'3 2.9
2014-Jul-15 15:33N 49°30' E 000°02'3 2.7
2014-Jul-15 14:33N 49°29' E 000°06'0 0.2
2014-Jul-15 13:34N 49°29' E 000°07'0 0.0
2014-Jul-15 12:34N 49°29' E 000°07'4 3.9
2014-Jul-15 11:33N 49°30' E 000°01'4 3.9
2014-Jul-15 10:33N 49°29' E 000°07'0 0.0
2014-Jul-15 09:34N 49°29' E 000°07'0 0.0
2014-Jul-15 08:34N 49°29' E 000°07'0 0.0
2014-Jul-15 07:34N 49°29' E 000°07'1 0.7
2014-Jul-15 06:34N 49°29' E 000°06'1 0.7
2014-Jul-15 05:34N 49°29' E 000°07'0 0.0
2014-Jul-15 04:34N 49°29' E 000°07'0 0.0
2014-Jul-15 03:33N 49°29' E 000°07'0 0.0
2014-Jul-15 02:33N 49°29' E 000°07'0 0.1
2014-Jul-15 01:33N 49°29' E 000°07'0 0.0
2014-Jul-15 00:33N 49°29' E 000°07'1 1.4
2014-Jul-14 23:33N 49°29' E 000°05'1 1.4
2014-Jul-14 22:33N 49°29' E 000°07'5 5.0
2014-Jul-14 21:33N 49°30' W 000°01'5 5.0
2014-Jul-14 20:33N 49°29' E 000°07'0 0.0
2014-Jul-14 19:33N 49°29' E 000°07'1 0.6
2014-Jul-14 18:33N 49°29' E 000°06'3 3.5
2014-Jul-14 17:33N 49°30' E 000°01'4 4.0
2014-Jul-14 16:34N 49°29' E 000°07'0 0.0
2014-Jul-14 15:34N 49°29' E 000°07'0 0.4
2014-Jul-14 14:34N 49°29' E 000°06'0 0.3
2014-Jul-14 13:33N 49°29' E 000°07'0 0.1
2014-Jul-14 12:33N 49°29' E 000°07'0 0.0
2014-Jul-14 11:33N 49°29' E 000°07'0 0.0
2014-Jul-14 10:33N 49°29' E 000°07'0 0.0
2014-Jul-14 09:33N 49°29' E 000°07'7 7.3
2014-Jul-14 08:33N 49°31' W 000°04'7 7.2
2014-Jul-14 07:33N 49°29' E 000°07'2 1.9
2014-Jul-14 06:33N 49°29' E 000°04'2 1.9
2014-Jul-14 05:33N 49°29' E 000°07'3 3.2
2014-Jul-14 04:33N 49°30' E 000°02'3 3.3
2014-Jul-14 03:33N 49°29' E 000°07'5 5.1
2014-Jul-14 02:34N 49°30' W 000°01'3 3.2
2014-Jul-14 01:33N 49°31' W 000°05'8 8.2
2014-Jul-14 00:33N 49°29' E 000°07'0 0.0
2014-Jul-13 23:33N 49°29' E 000°07'8 7.7
2014-Jul-13 22:34N 49°31' W 000°05'8 7.7
2014-Jul-13 21:34N 49°29' E 000°07'0 0.2
2014-Jul-13 20:33N 49°29' E 000°07'1 0.6
2014-Jul-13 19:34N 49°29' E 000°06'1 0.8
2014-Jul-13 18:34N 49°29' E 000°07'5 4.7
2014-Jul-13 17:34N 49°30' W 000°00'5 4.7
2014-Jul-13 16:33N 49°29' E 000°07'0 0.0
2014-Jul-13 15:33N 49°29' E 000°07'0 0.0
2014-Jul-13 14:33N 49°29' E 000°07'3 3.1
2014-Jul-13 13:33N 49°30' E 000°02'3 3.1
2014-Jul-13 12:33N 49°29' E 000°07'4 3.7
2014-Jul-13 11:34N 49°30' E 000°01'  

Dump ship's entire track history